createdAt,value
2018-12-31T20:05:33.877Z,20.57
2018-12-31T20:08:22.618Z,19.13
2018-12-31T20:11:23.189Z,19.50
2018-12-31T20:13:52.214Z,22.20
2018-12-31T20:16:24.605Z,22.00
2018-12-31T20:19:13.458Z,22.53
2018-12-31T20:28:09.036Z,22.70
2018-12-31T20:31:21.017Z,21.00
2018-12-31T20:37:59.734Z,20.43
2018-12-31T20:40:42.474Z,21.50
2018-12-31T20:43:08.454Z,19.90
2018-12-31T20:46:22.784Z,20.50
2018-12-31T20:49:09.203Z,19.20
2018-12-31T20:52:04.294Z,19.57
2018-12-31T20:55:18.265Z,18.53
2018-12-31T20:58:19.386Z,18.03
2018-12-31T21:06:54.134Z,17.80
2018-12-31T21:09:29.001Z,18.90
2018-12-31T21:12:06.661Z,25.50
2018-12-31T21:15:06.313Z,19.80
2018-12-31T21:17:38.355Z,20.33
2018-12-31T21:23:29.697Z,21.40
2018-12-31T21:26:22.660Z,21.10
2018-12-31T21:28:50.125Z,20.97
2018-12-31T21:31:37.862Z,20.37
2018-12-31T21:34:10.242Z,21.00
2018-12-31T21:36:38.655Z,20.80
2018-12-31T21:39:08.091Z,20.73
2018-12-31T21:41:49.744Z,19.77
2018-12-31T21:44:22.516Z,18.47
2018-12-31T21:46:53.985Z,18.67
2018-12-31T21:49:49.223Z,17.17
2018-12-31T21:52:21.585Z,17.70
2018-12-31T21:55:03.709Z,19.60
2018-12-31T21:57:44.387Z,17.27
2018-12-31T22:00:30.454Z,18.70
2018-12-31T22:03:37.256Z,26.80
2018-12-31T22:06:03.182Z,18.37
2018-12-31T22:08:29.604Z,25.63
2018-12-31T22:11:05.437Z,22.17
2018-12-31T22:13:40.661Z,22.90
2018-12-31T22:23:04.021Z,25.93
2018-12-31T22:25:32.295Z,25.87
2018-12-31T22:28:00.503Z,23.93
2018-12-31T22:30:28.698Z,23.60
2018-12-31T22:33:03.284Z,28.43
2018-12-31T22:35:44.563Z,20.93
2018-12-31T22:38:20.880Z,21.97
2018-12-31T22:40:49.592Z,24.73
2018-12-31T22:43:33.131Z,25.20
2018-12-31T22:46:04.503Z,22.57
2018-12-31T22:48:34.760Z,24.53
2018-12-31T22:51:06.585Z,21.07
2018-12-31T22:53:40.149Z,26.80
2018-12-31T22:56:11.958Z,32.60
2018-12-31T22:58:40.861Z,27.77
2018-12-31T23:01:14.686Z,33.93
2018-12-31T23:03:47.764Z,35.80
2018-12-31T23:06:16.519Z,31.63
2018-12-31T23:08:50.624Z,31.47
2018-12-31T23:11:25.863Z,26.83
2018-12-31T23:13:51.186Z,29.30
2018-12-31T23:16:21.671Z,26.90
2018-12-31T23:18:50.091Z,30.63
2018-12-31T23:21:21.290Z,28.93
2018-12-31T23:23:49.947Z,30.50
2018-12-31T23:26:22.723Z,26.60
2018-12-31T23:28:54.210Z,24.90
2018-12-31T23:31:25.708Z,30.73
2018-12-31T23:33:54.767Z,26.10
2018-12-31T23:36:23.160Z,29.37
2018-12-31T23:38:53.120Z,29.70
2018-12-31T23:41:26.522Z,23.00
2018-12-31T23:43:55.143Z,27.40
2018-12-31T23:46:23.561Z,26.07
2018-12-31T23:48:53.563Z,24.17
2018-12-31T23:51:22.152Z,25.00
2018-12-31T23:53:53.583Z,25.37
2018-12-31T23:56:22.179Z,27.60
2018-12-31T23:58:54.252Z,29.40
